sensor_id;sensor_type;location;lat;lon;timestamp;pressure;altitude;pressure_sealevel;temperature;humidity
77799;BME280;66989;50.426;15.352;2023-08-08T00:01:48;98018.19;;;11.82;94.30
77799;BME280;66989;50.426;15.352;2023-08-08T00:04:13;98013.84;;;11.81;94.57
77799;BME280;66989;50.426;15.352;2023-08-08T00:06:40;98007.03;;;11.79;94.59
77799;BME280;66989;50.426;15.352;2023-08-08T00:09:05;98015.19;;;11.76;94.78
77799;BME280;66989;50.426;15.352;2023-08-08T00:11:32;98006.59;;;11.74;94.72
77799;BME280;66989;50.426;15.352;2023-08-08T00:13:57;97999.63;;;11.73;94.84
77799;BME280;66989;50.426;15.352;2023-08-08T00:16:23;98006.38;;;11.65;95.30
77799;BME280;66989;50.426;15.352;2023-08-08T00:18:48;97995.94;;;11.64;95.29
77799;BME280;66989;50.426;15.352;2023-08-08T00:21:16;98004.97;;;11.61;95.22
77799;BME280;66989;50.426;15.352;2023-08-08T00:23:41;97999.25;;;11.56;95.37
77799;BME280;66989;50.426;15.352;2023-08-08T00:26:06;98003.09;;;11.52;95.64
77799;BME280;66989;50.426;15.352;2023-08-08T00:28:32;98003.34;;;11.49;95.68
77799;BME280;66989;50.426;15.352;2023-08-08T00:30:57;97998.34;;;11.46;95.65
77799;BME280;66989;50.426;15.352;2023-08-08T00:33:22;98003.72;;;11.45;95.54
77799;BME280;66989;50.426;15.352;2023-08-08T00:35:48;98000.13;;;11.46;95.59
77799;BME280;66989;50.426;15.352;2023-08-08T00:38:13;97999.19;;;11.47;95.76
77799;BME280;66989;50.426;15.352;2023-08-08T00:40:38;98008.91;;;11.46;95.61
77799;BME280;66989;50.426;15.352;2023-08-08T00:43:04;97999.19;;;11.47;95.15
77799;BME280;66989;50.426;15.352;2023-08-08T00:45:29;98011.28;;;11.49;95.55
77799;BME280;66989;50.426;15.352;2023-08-08T00:47:55;98012.00;;;11.51;95.19
77799;BME280;66989;50.426;15.352;2023-08-08T00:50:20;98010.06;;;11.53;94.97
77799;BME280;66989;50.426;15.352;2023-08-08T00:52:46;98009.34;;;11.51;95.01
77799;BME280;66989;50.426;15.352;2023-08-08T00:55:13;98005.53;;;11.44;95.57
77799;BME280;66989;50.426;15.352;2023-08-08T00:57:40;98006.88;;;11.38;95.92
77799;BME280;66989;50.426;15.352;2023-08-08T01:00:07;98010.03;;;11.32;96.20
77799;BME280;66989;50.426;15.352;2023-08-08T01:02:34;98006.09;;;11.27;96.33
77799;BME280;66989;50.426;15.352;2023-08-08T01:04:59;98016.22;;;11.22;96.65
77799;BME280;66989;50.426;15.352;2023-08-08T01:10:14;98023.66;;;11.17;96.84
77799;BME280;66989;50.426;15.352;2023-08-08T01:12:47;98018.63;;;11.13;96.90
77799;BME280;66989;50.426;15.352;2023-08-08T01:15:14;98015.28;;;11.11;96.80
77799;BME280;66989;50.426;15.352;2023-08-08T01:17:41;98014.44;;;11.11;96.46
77799;BME280;66989;50.426;15.352;2023-08-08T01:20:08;98011.44;;;11.16;96.02
77799;BME280;66989;50.426;15.352;2023-08-08T01:22:56;98006.16;;;11.16;96.16
77799;BME280;66989;50.426;15.352;2023-08-08T01:25:23;98003.75;;;11.12;96.21
77799;BME280;66989;50.426;15.352;2023-08-08T01:27:49;97998.84;;;11.08;96.66
77799;BME280;66989;50.426;15.352;2023-08-08T01:30:14;97999.13;;;11.05;96.71
77799;BME280;66989;50.426;15.352;2023-08-08T01:32:40;98000.19;;;11.02;96.96
77799;BME280;66989;50.426;15.352;2023-08-08T01:35:06;98008.25;;;11.01;97.07
77799;BME280;66989;50.426;15.352;2023-08-08T01:37:53;98006.81;;;10.97;97.07
77799;BME280;66989;50.426;15.352;2023-08-08T01:40:20;98013.19;;;10.94;97.72
77799;BME280;66989;50.426;15.352;2023-08-08T01:42:46;98003.56;;;10.93;97.16
77799;BME280;66989;50.426;15.352;2023-08-08T01:45:13;98012.00;;;10.87;97.56
77799;BME280;66989;50.426;15.352;2023-08-08T01:47:40;98014.75;;;10.85;97.31
77799;BME280;66989;50.426;15.352;2023-08-08T01:50:05;98008.75;;;10.83;97.85
77799;BME280;66989;50.426;15.352;2023-08-08T01:52:31;98006.72;;;10.87;96.95
77799;BME280;66989;50.426;15.352;2023-08-08T01:54:56;98012.00;;;10.87;97.09
77799;BME280;66989;50.426;15.352;2023-08-08T01:57:22;98008.16;;;10.91;97.02
77799;BME280;66989;50.426;15.352;2023-08-08T01:59:47;97997.38;;;10.94;96.82
77799;BME280;66989;50.426;15.352;2023-08-08T02:02:13;98005.72;;;10.99;96.25
77799;BME280;66989;50.426;15.352;2023-08-08T02:04:38;98004.41;;;11.05;95.90
77799;BME280;66989;50.426;15.352;2023-08-08T02:07:04;98004.72;;;11.11;95.49
77799;BME280;66989;50.426;15.352;2023-08-08T02:09:29;98006.03;;;11.17;95.18
77799;BME280;66989;50.426;15.352;2023-08-08T02:11:55;98001.06;;;11.24;94.56
77799;BME280;66989;50.426;15.352;2023-08-08T02:14:20;98007.53;;;11.31;94.41
77799;BME280;66989;50.426;15.352;2023-08-08T02:16:45;97998.66;;;11.32;94.45
77799;BME280;66989;50.426;15.352;2023-08-08T02:19:11;98008.22;;;11.33;94.18
77799;BME280;66989;50.426;15.352;2023-08-08T02:21:36;98002.94;;;11.33;94.29
77799;BME280;66989;50.426;15.352;2023-08-08T02:24:01;98006.81;;;11.29;94.88
77799;BME280;66989;50.426;15.352;2023-08-08T02:26:27;97997.09;;;11.29;94.37
77799;BME280;66989;50.426;15.352;2023-08-08T02:28:52;98003.19;;;11.30;94.66
77799;BME280;66989;50.426;15.352;2023-08-08T02:31:18;97999.25;;;11.24;94.78
77799;BME280;66989;50.426;15.352;2023-08-08T02:33:50;97998.69;;;11.21;94.81
77799;BME280;66989;50.426;15.352;2023-08-08T02:36:17;98004.47;;;11.14;95.26
77799;BME280;66989;50.426;15.352;2023-08-08T02:38:42;98002.09;;;11.11;95.03
77799;BME280;66989;50.426;15.352;2023-08-08T02:41:08;98001.34;;;11.09;95.13
77799;BME280;66989;50.426;15.352;2023-08-08T02:43:33;98003.28;;;11.07;95.18
77799;BME280;66989;50.426;15.352;2023-08-08T02:45:58;98005.22;;;11.05;95.20
77799;BME280;66989;50.426;15.352;2023-08-08T02:48:24;98002.84;;;11.02;94.89
77799;BME280;66989;50.426;15.352;2023-08-08T02:50:49;98008.25;;;11.01;95.21
77799;BME280;66989;50.426;15.352;2023-08-08T02:53:15;98006.81;;;10.97;95.14
77799;BME280;66989;50.426;15.352;2023-08-08T02:55:40;98010.91;;;10.90;95.49
77799;BME280;66989;50.426;15.352;2023-08-08T02:58:05;98004.81;;;10.89;95.80
77799;BME280;66989;50.426;15.352;2023-08-08T03:00:31;98009.63;;;10.84;95.53
77799;BME280;66989;50.426;15.352;2023-08-08T03:02:56;98007.09;;;10.82;95.89
77799;BME280;66989;50.426;15.352;2023-08-08T03:05:21;98013.00;;;10.75;96.13
77799;BME280;66989;50.426;15.352;2023-08-08T03:07:47;98006.41;;;10.69;96.33
77799;BME280;66989;50.426;15.352;2023-08-08T03:10:13;97999.56;;;10.67;96.86
77799;BME280;66989;50.426;15.352;2023-08-08T03:12:38;98006.50;;;10.68;96.40
77799;BME280;66989;50.426;15.352;2023-08-08T03:15:05;98004.84;;;10.67;96.75
77799;BME280;66989;50.426;15.352;2023-08-08T03:17:30;98009.50;;;10.63;96.80
77799;BME280;66989;50.426;15.352;2023-08-08T03:19:56;98006.16;;;10.61;96.99
77799;BME280;66989;50.426;15.352;2023-08-08T03:22:21;98013.38;;;10.59;96.62
77799;BME280;66989;50.426;15.352;2023-08-08T03:24:46;98011.94;;;10.55;96.75
77799;BME280;66989;50.426;15.352;2023-08-08T03:27:12;98005.84;;;10.54;96.57
77799;BME280;66989;50.426;15.352;2023-08-08T03:29:37;98021.88;;;10.51;96.92
77799;BME280;66989;50.426;15.352;2023-08-08T03:32:04;98013.50;;;10.46;97.06
77799;BME280;66989;50.426;15.352;2023-08-08T03:34:29;98017.59;;;10.39;97.14
77799;BME280;66989;50.426;15.352;2023-08-08T03:36:55;98007.75;;;10.41;97.20
77799;BME280;66989;50.426;15.352;2023-08-08T03:39:21;98012.44;;;10.38;97.14
77799;BME280;66989;50.426;15.352;2023-08-08T03:41:46;98014.66;;;10.31;97.26
77799;BME280;66989;50.426;15.352;2023-08-08T03:44:12;98016.59;;;10.29;97.60
77799;BME280;66989;50.426;15.352;2023-08-08T03:46:37;98018.50;;;10.27;97.76
77799;BME280;66989;50.426;15.352;2023-08-08T03:49:03;98024.03;;;10.24;98.09
77799;BME280;66989;50.426;15.352;2023-08-08T03:51:28;98030.25;;;10.23;98.26
77799;BME280;66989;50.426;15.352;2023-08-08T03:53:54;98036.38;;;10.23;97.96
77799;BME280;66989;50.426;15.352;2023-08-08T03:56:19;98036.25;;;10.25;97.74
77799;BME280;66989;50.426;15.352;2023-08-08T03:58:45;98043.31;;;10.24;97.84
77799;BME280;66989;50.426;15.352;2023-08-08T04:01:10;98031.81;;;10.25;97.61
77799;BME280;66989;50.426;15.352;2023-08-08T04:03:36;98047.47;;;10.27;97.61
77799;BME280;66989;50.426;15.352;2023-08-08T04:06:02;98042.47;;;10.35;97.18
77799;BME280;66989;50.426;15.352;2023-08-08T04:08:27;98049.44;;;10.36;97.03
77799;BME280;66989;50.426;15.352;2023-08-08T04:10:53;98048.72;;;10.45;96.96
77799;BME280;66989;50.426;15.352;2023-08-08T04:13:19;98049.34;;;10.49;96.72
77799;BME280;66989;50.426;15.352;2023-08-08T04:15:44;98044.53;;;10.54;96.39
77799;BME280;66989;50.426;15.352;2023-08-08T04:18:10;98045.25;;;10.56;96.58
77799;BME280;66989;50.426;15.352;2023-08-08T04:20:35;98046.56;;;10.61;95.97
77799;BME280;66989;50.426;15.352;2023-08-08T04:23:01;98047.03;;;10.67;95.64
77799;BME280;66989;50.426;15.352;2023-08-08T04:25:27;98054.34;;;10.74;95.46
77799;BME280;66989;50.426;15.352;2023-08-08T04:27:53;98054.91;;;10.78;95.18
77799;BME280;66989;50.426;15.352;2023-08-08T04:30:18;98061.97;;;10.88;94.45
77799;BME280;66989;50.426;15.352;2023-08-08T04:32:45;98058.97;;;10.93;94.00
77799;BME280;66989;50.426;15.352;2023-08-08T04:35:10;98064.84;;;10.97;94.00
77799;BME280;66989;50.426;15.352;2023-08-08T04:37:35;98055.84;;;10.99;94.08
77799;BME280;66989;50.426;15.352;2023-08-08T04:40:01;98061.56;;;11.04;94.19
77799;BME280;66989;50.426;15.352;2023-08-08T04:42:26;98060.13;;;11.11;93.47
77799;BME280;66989;50.426;15.352;2023-08-08T04:44:52;98068.16;;;11.21;92.93
77799;BME280;66989;50.426;15.352;2023-08-08T04:47:17;98067.50;;;11.29;92.67
77799;BME280;66989;50.426;15.352;2023-08-08T04:49:42;98069.91;;;11.32;92.46
77799;BME280;66989;50.426;15.352;2023-08-08T04:52:08;98066.31;;;11.33;91.86
77799;BME280;66989;50.426;15.352;2023-08-08T04:54:33;98072.56;;;11.32;91.58
77799;BME280;66989;50.426;15.352;2023-08-08T04:56:59;98063.06;;;11.29;91.35
77799;BME280;66989;50.426;15.352;2023-08-08T04:59:24;98071.94;;;11.28;91.02
77799;BME280;66989;50.426;15.352;2023-08-08T05:01:49;98069.19;;;11.30;91.13
77799;BME280;66989;50.426;15.352;2023-08-08T05:04:17;98071.44;;;11.34;90.61
77799;BME280;66989;50.426;15.352;2023-08-08T05:06:42;98070.56;;;11.45;90.19
77799;BME280;66989;50.426;15.352;2023-08-08T05:09:08;98078.47;;;11.56;89.86
77799;BME280;66989;50.426;15.352;2023-08-08T05:11:35;98070.59;;;11.66;89.78
77799;BME280;66989;50.426;15.352;2023-08-08T05:14:00;98074.97;;;11.77;89.01
77799;BME280;66989;50.426;15.352;2023-08-08T05:16:25;98075.50;;;11.91;88.08
77799;BME280;66989;50.426;15.352;2023-08-08T05:18:51;98076.22;;;12.14;87.48
77799;BME280;66989;50.426;15.352;2023-08-08T05:21:16;98078.03;;;12.35;86.53
77799;BME280;66989;50.426;15.352;2023-08-08T05:23:42;98072.03;;;12.63;84.96
77799;BME280;66989;50.426;15.352;2023-08-08T05:26:07;98063.03;;;12.85;83.54
77799;BME280;66989;50.426;15.352;2023-08-08T05:28:32;98065.91;;;13.13;82.34
77799;BME280;66989;50.426;15.352;2023-08-08T05:30:58;98063.28;;;13.42;80.90
77799;BME280;66989;50.426;15.352;2023-08-08T05:33:24;98058.56;;;13.65;79.78
77799;BME280;66989;50.426;15.352;2023-08-08T05:35:49;98055.63;;;13.97;79.30
77799;BME280;66989;50.426;15.352;2023-08-08T05:38:17;98056.63;;;14.33;77.64
77799;BME280;66989;50.426;15.352;2023-08-08T05:40:43;98056.78;;;14.69;76.34
77799;BME280;66989;50.426;15.352;2023-08-08T05:43:08;98054.28;;;14.95;75.30
77799;BME280;66989;50.426;15.352;2023-08-08T05:45:35;98052.31;;;15.24;72.61
77799;BME280;66989;50.426;15.352;2023-08-08T05:48:00;98065.97;;;15.29;72.45
77799;BME280;66989;50.426;15.352;2023-08-08T05:50:30;98060.59;;;15.12;73.09
77799;BME280;66989;50.426;15.352;2023-08-08T05:52:55;98055.97;;;15.23;72.15
77799;BME280;66989;50.426;15.352;2023-08-08T05:55:20;98059.72;;;15.21;73.14
77799;BME280;66989;50.426;15.352;2023-08-08T05:57:46;98063.56;;;15.09;74.18
77799;BME280;66989;50.426;15.352;2023-08-08T06:00:12;98069.59;;;15.01;74.36
77799;BME280;66989;50.426;15.352;2023-08-08T06:02:37;98070.09;;;15.14;75.69
77799;BME280;66989;50.426;15.352;2023-08-08T06:05:04;98053.44;;;15.22;75.38
77799;BME280;66989;50.426;15.352;2023-08-08T06:07:29;98062.38;;;15.21;74.59
77799;BME280;66989;50.426;15.352;2023-08-08T06:09:55;98063.63;;;15.26;75.19
77799;BME280;66989;50.426;15.352;2023-08-08T06:12:20;98061.13;;;15.15;75.46
77799;BME280;66989;50.426;15.352;2023-08-08T06:14:45;98063.50;;;15.18;75.21
77799;BME280;66989;50.426;15.352;2023-08-08T06:17:11;98064.69;;;15.06;74.19
77799;BME280;66989;50.426;15.352;2023-08-08T06:19:36;98071.00;;;15.05;74.82
77799;BME280;66989;50.426;15.352;2023-08-08T06:22:02;98071.16;;;15.03;75.04
77799;BME280;66989;50.426;15.352;2023-08-08T06:24:28;98071.63;;;14.89;75.54
77799;BME280;66989;50.426;15.352;2023-08-08T06:26:54;98078.66;;;14.81;76.12
77799;BME280;66989;50.426;15.352;2023-08-08T06:29:19;98078.81;;;14.79;76.19
77799;BME280;66989;50.426;15.352;2023-08-08T06:31:45;98079.78;;;15.06;75.89
77799;BME280;66989;50.426;15.352;2023-08-08T06:34:10;98079.72;;;15.43;74.27
77799;BME280;66989;50.426;15.352;2023-08-08T06:36:36;98068.78;;;15.64;73.39
77799;BME280;66989;50.426;15.352;2023-08-08T06:39:02;98075.91;;;15.99;72.44
77799;BME280;66989;50.426;15.352;2023-08-08T06:41:29;98069.03;;;16.14;71.96
77799;BME280;66989;50.426;15.352;2023-08-08T06:43:54;98073.69;;;16.38;72.13
77799;BME280;66989;50.426;15.352;2023-08-08T06:46:20;98068.84;;;16.42;69.62
77799;BME280;66989;50.426;15.352;2023-08-08T06:48:46;98068.84;;;16.42;69.37
77799;BME280;66989;50.426;15.352;2023-08-08T06:51:12;98078.19;;;16.38;70.20
77799;BME280;66989;50.426;15.352;2023-08-08T06:53:37;98070.59;;;16.25;70.77
77799;BME280;66989;50.426;15.352;2023-08-08T06:56:03;98078.78;;;16.31;70.94
77799;BME280;66989;50.426;15.352;2023-08-08T06:58:29;98067.66;;;16.62;69.71
77799;BME280;66989;50.426;15.352;2023-08-08T07:00:54;98074.41;;;16.74;69.84
77799;BME280;66989;50.426;15.352;2023-08-08T07:03:20;98083.06;;;16.76;69.41
77799;BME280;66989;50.426;15.352;2023-08-08T07:05:45;98081.22;;;16.77;70.30
77799;BME280;66989;50.426;15.352;2023-08-08T07:08:12;98069.34;;;16.97;68.96
77799;BME280;66989;50.426;15.352;2023-08-08T07:10:38;98086.38;;;17.13;68.30
77799;BME280;66989;50.426;15.352;2023-08-08T07:13:03;98072.66;;;17.58;67.21
77799;BME280;66989;50.426;15.352;2023-08-08T07:15:29;98074.88;;;17.79;64.86
77799;BME280;66989;50.426;15.352;2023-08-08T07:17:55;98074.88;;;17.79;65.38
77799;BME280;66989;50.426;15.352;2023-08-08T07:20:20;98076.66;;;17.54;65.81
77799;BME280;66989;50.426;15.352;2023-08-08T07:22:46;98076.66;;;17.46;65.13
77799;BME280;66989;50.426;15.352;2023-08-08T07:25:12;98076.66;;;17.46;66.56
77799;BME280;66989;50.426;15.352;2023-08-08T07:27:37;98079.78;;;17.49;67.50
77799;BME280;66989;50.426;15.352;2023-08-08T07:30:04;98079.13;;;17.47;67.91
77799;BME280;66989;50.426;15.352;2023-08-08T07:32:32;98073.91;;;17.29;67.07
77799;BME280;66989;50.426;15.352;2023-08-08T07:34:57;98079.59;;;17.26;66.58
77799;BME280;66989;50.426;15.352;2023-08-08T07:37:23;98076.78;;;17.36;66.51
77799;BME280;66989;50.426;15.352;2023-08-08T07:39:50;98071.13;;;17.47;66.09
77799;BME280;66989;50.426;15.352;2023-08-08T07:42:16;98068.63;;;17.37;66.08
77799;BME280;66989;50.426;15.352;2023-08-08T07:44:42;98065.59;;;17.32;67.01
77799;BME280;66989;50.426;15.352;2023-08-08T07:47:07;98075.88;;;17.19;66.86
77799;BME280;66989;50.426;15.352;2023-08-08T07:49:32;98086.19;;;17.14;66.77
77799;BME280;66989;50.426;15.352;2023-08-08T07:51:58;98089.78;;;16.89;68.20
77799;BME280;66989;50.426;15.352;2023-08-08T07:54:23;98090.13;;;16.94;68.78
77799;BME280;66989;50.426;15.352;2023-08-08T07:56:49;98093.31;;;16.97;67.64
77799;BME280;66989;50.426;15.352;2023-08-08T07:59:14;98091.75;;;16.87;67.78
77799;BME280;66989;50.426;15.352;2023-08-08T08:01:39;98093.44;;;16.53;68.10
77799;BME280;66989;50.426;15.352;2023-08-08T08:04:05;98093.66;;;16.42;68.60
77799;BME280;66989;50.426;15.352;2023-08-08T08:06:30;98089.41;;;16.31;69.45
77799;BME280;66989;50.426;15.352;2023-08-08T08:08:56;98088.09;;;16.27;70.20
77799;BME280;66989;50.426;15.352;2023-08-08T08:11:21;98081.50;;;16.14;70.55
77799;BME280;66989;50.426;15.352;2023-08-08T08:13:47;98076.59;;;16.01;68.83
77799;BME280;66989;50.426;15.352;2023-08-08T08:16:12;98078.25;;;16.02;69.25
77799;BME280;66989;50.426;15.352;2023-08-08T08:18:38;98076.59;;;16.01;70.25
77799;BME280;66989;50.426;15.352;2023-08-08T08:21:04;98080.53;;;15.97;69.13
77799;BME280;66989;50.426;15.352;2023-08-08T08:23:30;98082.22;;;15.98;69.57
77799;BME280;66989;50.426;15.352;2023-08-08T08:25:57;98075.63;;;16.10;69.32
77799;BME280;66989;50.426;15.352;2023-08-08T08:28:22;98073.41;;;16.23;68.89
77799;BME280;66989;50.426;15.352;2023-08-08T08:30:48;98072.53;;;16.67;68.96
77799;BME280;66989;50.426;15.352;2023-08-08T08:33:15;98069.47;;;16.88;66.26
77799;BME280;66989;50.426;15.352;2023-08-08T08:35:41;98072.53;;;17.09;67.43
77799;BME280;66989;50.426;15.352;2023-08-08T08:38:06;98069.50;;;17.04;64.80
77799;BME280;66989;50.426;15.352;2023-08-08T08:40:37;98069.84;;;17.01;65.23
77799;BME280;66989;50.426;15.352;2023-08-08T08:43:03;98071.50;;;17.02;64.90
77799;BME280;66989;50.426;15.352;2023-08-08T08:45:29;98065.75;;;17.15;64.64
77799;BME280;66989;50.426;15.352;2023-08-08T08:47:56;98056.75;;;17.24;62.92
77799;BME280;66989;50.426;15.352;2023-08-08T08:50:22;98058.81;;;17.46;62.79
77799;BME280;66989;50.426;15.352;2023-08-08T08:52:49;98054.34;;;17.71;61.93
77799;BME280;66989;50.426;15.352;2023-08-08T08:55:16;98050.34;;;17.92;62.39
77799;BME280;66989;50.426;15.352;2023-08-08T08:57:42;98063.34;;;18.11;60.64
77799;BME280;66989;50.426;15.352;2023-08-08T09:00:10;98059.13;;;18.41;60.12
77799;BME280;66989;50.426;15.352;2023-08-08T09:02:36;98059.78;;;18.43;60.24
77799;BME280;66989;50.426;15.352;2023-08-08T09:05:03;98064.63;;;18.48;60.23
77799;BME280;66989;50.426;15.352;2023-08-08T09:07:31;98059.81;;;18.35;59.11
77799;BME280;66989;50.426;15.352;2023-08-08T09:09:57;98058.50;;;18.23;59.01
77799;BME280;66989;50.426;15.352;2023-08-08T09:12:22;98055.34;;;18.19;59.45
77799;BME280;66989;50.426;15.352;2023-08-08T09:14:54;98061.16;;;18.31;59.83
77799;BME280;66989;50.426;15.352;2023-08-08T09:17:21;98055.69;;;18.24;60.02
77799;BME280;66989;50.426;15.352;2023-08-08T09:19:46;98058.16;;;18.34;59.27
77799;BME280;66989;50.426;15.352;2023-08-08T09:22:13;98055.31;;;18.35;59.89
77799;BME280;66989;50.426;15.352;2023-08-08T09:24:40;98057.16;;;18.35;58.89
77799;BME280;66989;50.426;15.352;2023-08-08T09:27:07;98055.47;;;18.42;57.97
77799;BME280;66989;50.426;15.352;2023-08-08T09:29:33;98055.28;;;18.44;57.81
77799;BME280;66989;50.426;15.352;2023-08-08T09:31:58;98056.28;;;18.42;58.19
77799;BME280;66989;50.426;15.352;2023-08-08T09:34:25;98055.13;;;18.37;59.26
77799;BME280;66989;50.426;15.352;2023-08-08T09:36:53;98045.16;;;18.23;57.66
77799;BME280;66989;50.426;15.352;2023-08-08T09:39:19;98043.00;;;18.02;58.42
77799;BME280;66989;50.426;15.352;2023-08-08T09:41:46;98035.72;;;17.87;59.25
77799;BME280;66989;50.426;15.352;2023-08-08T09:44:11;98030.03;;;17.74;59.92
77799;BME280;66989;50.426;15.352;2023-08-08T09:46:37;98047.84;;;17.66;59.91
77799;BME280;66989;50.426;15.352;2023-08-08T09:49:04;98037.69;;;17.69;60.34
77799;BME280;66989;50.426;15.352;2023-08-08T09:51:29;98039.88;;;17.74;60.16
77799;BME280;66989;50.426;15.352;2023-08-08T09:53:56;98045.88;;;17.84;60.67
77799;BME280;66989;50.426;15.352;2023-08-08T09:56:23;98044.69;;;18.03;60.59
77799;BME280;66989;50.426;15.352;2023-08-08T09:58:50;98043.81;;;18.27;59.48
77799;BME280;66989;50.426;15.352;2023-08-08T10:01:16;98043.25;;;18.48;57.72
77799;BME280;66989;50.426;15.352;2023-08-08T10:03:41;98034.38;;;18.72;57.02
77799;BME280;66989;50.426;15.352;2023-08-08T10:06:09;98033.88;;;19.07;57.24
77799;BME280;66989;50.426;15.352;2023-08-08T10:08:35;98035.03;;;19.36;56.22
77799;BME280;66989;50.426;15.352;2023-08-08T10:11:01;98029.75;;;19.51;56.03
77799;BME280;66989;50.426;15.352;2023-08-08T10:13:27;98027.44;;;19.93;55.43
77799;BME280;66989;50.426;15.352;2023-08-08T10:15:53;98018.28;;;20.26;54.55
77799;BME280;66989;50.426;15.352;2023-08-08T10:18:23;98006.63;;;20.18;54.32
77799;BME280;66989;50.426;15.352;2023-08-08T10:20:50;98011.38;;;19.93;53.51
77799;BME280;66989;50.426;15.352;2023-08-08T10:23:16;98003.63;;;19.84;53.91
77799;BME280;66989;50.426;15.352;2023-08-08T10:25:51;98011.06;;;19.74;54.92
77799;BME280;66989;50.426;15.352;2023-08-08T10:28:19;98006.38;;;19.53;56.24
77799;BME280;66989;50.426;15.352;2023-08-08T10:30:48;98009.38;;;19.50;56.02
77799;BME280;66989;50.426;15.352;2023-08-08T10:33:25;98000.47;;;19.34;55.02
77799;BME280;66989;50.426;15.352;2023-08-08T10:36:02;98006.66;;;19.35;56.13
77799;BME280;66989;50.426;15.352;2023-08-08T10:38:48;98004.97;;;19.34;55.69
77799;BME280;66989;50.426;15.352;2023-08-08T10:41:20;98005.41;;;19.23;57.94
77799;BME280;66989;50.426;15.352;2023-08-08T10:43:51;98011.78;;;19.13;58.29
77799;BME280;66989;50.426;15.352;2023-08-08T10:46:32;97996.97;;;19.11;58.46
77799;BME280;66989;50.426;15.352;2023-08-08T10:49:00;98001.91;;;19.22;58.09
77799;BME280;66989;50.426;15.352;2023-08-08T10:51:36;98001.38;;;19.50;57.43
77799;BME280;66989;50.426;15.352;2023-08-08T10:54:16;98000.56;;;19.87;56.51
77799;BME280;66989;50.426;15.352;2023-08-08T10:56:50;97992.06;;;20.21;56.00
77799;BME280;66989;50.426;15.352;2023-08-08T10:59:18;97990.03;;;20.53;54.44
77799;BME280;66989;50.426;15.352;2023-08-08T11:01:46;97979.78;;;20.71;53.69
77799;BME280;66989;50.426;15.352;2023-08-08T11:04:13;97973.50;;;21.15;52.61
77799;BME280;66989;50.426;15.352;2023-08-08T11:06:39;97967.03;;;21.52;52.83
77799;BME280;66989;50.426;15.352;2023-08-08T11:09:08;97960.22;;;21.49;50.02
77799;BME280;66989;50.426;15.352;2023-08-08T11:11:40;97963.78;;;21.78;47.76
77799;BME280;66989;50.426;15.352;2023-08-08T11:14:16;97967.00;;;21.45;48.56
77799;BME280;66989;50.426;15.352;2023-08-08T11:16:43;97968.75;;;21.17;48.31
77799;BME280;66989;50.426;15.352;2023-08-08T11:19:10;97967.56;;;21.41;47.60
77799;BME280;66989;50.426;15.352;2023-08-08T11:21:40;97956.22;;;22.16;46.63
77799;BME280;66989;50.426;15.352;2023-08-08T11:24:06;97950.56;;;22.39;45.95
77799;BME280;66989;50.426;15.352;2023-08-08T11:26:33;97957.13;;;21.95;45.67
77799;BME280;66989;50.426;15.352;2023-08-08T11:29:00;97952.97;;;21.65;45.56
77799;BME280;66989;50.426;15.352;2023-08-08T11:31:28;97951.94;;;21.66;45.91
77799;BME280;66989;50.426;15.352;2023-08-08T11:33:55;97956.41;;;22.15;45.98
77799;BME280;66989;50.426;15.352;2023-08-08T11:36:22;97945.28;;;22.18;44.18
77799;BME280;66989;50.426;15.352;2023-08-08T11:38:49;97952.38;;;22.67;43.07
77799;BME280;66989;50.426;15.352;2023-08-08T11:41:17;97951.59;;;22.38;41.45
77799;BME280;66989;50.426;15.352;2023-08-08T11:43:43;97945.78;;;22.00;40.57
77799;BME280;66989;50.426;15.352;2023-08-08T11:46:12;97946.94;;;22.47;40.28
77799;BME280;66989;50.426;15.352;2023-08-08T11:48:38;97936.16;;;22.95;40.31
77799;BME280;66989;50.426;15.352;2023-08-08T11:51:04;97948.41;;;23.24;40.89
77799;BME280;66989;50.426;15.352;2023-08-08T11:53:30;97932.69;;;23.21;41.54
77799;BME280;66989;50.426;15.352;2023-08-08T11:55:57;97940.34;;;23.11;41.62
77799;BME280;66989;50.426;15.352;2023-08-08T11:58:26;97934.50;;;23.00;43.35
77799;BME280;66989;50.426;15.352;2023-08-08T12:00:52;97934.63;;;23.60;42.72
77799;BME280;66989;50.426;15.352;2023-08-08T12:03:20;97925.38;;;24.60;39.81
77799;BME280;66989;50.426;15.352;2023-08-08T12:05:47;97927.44;;;24.65;39.89
77799;BME280;66989;50.426;15.352;2023-08-08T12:08:12;97916.25;;;25.38;38.36
77799;BME280;66989;50.426;15.352;2023-08-08T12:10:38;97919.41;;;24.97;38.58
77799;BME280;66989;50.426;15.352;2023-08-08T12:13:04;97923.59;;;24.79;39.34
77799;BME280;66989;50.426;15.352;2023-08-08T12:15:34;97923.88;;;24.71;39.36
77799;BME280;66989;50.426;15.352;2023-08-08T12:18:01;97928.94;;;24.41;38.91
77799;BME280;66989;50.426;15.352;2023-08-08T12:20:28;97928.19;;;23.94;38.94
77799;BME280;66989;50.426;15.352;2023-08-08T12:22:58;97920.50;;;24.24;38.53
77799;BME280;66989;50.426;15.352;2023-08-08T12:25:24;97909.81;;;25.07;38.15
77799;BME280;66989;50.426;15.352;2023-08-08T12:27:51;97905.66;;;25.61;36.35
77799;BME280;66989;50.426;15.352;2023-08-08T12:30:17;97903.19;;;25.60;37.46
77799;BME280;66989;50.426;15.352;2023-08-08T12:32:42;97900.59;;;25.15;37.93
77799;BME280;66989;50.426;15.352;2023-08-08T12:35:08;97907.03;;;24.76;37.56
77799;BME280;66989;50.426;15.352;2023-08-08T12:37:33;97901.00;;;24.22;39.08
77799;BME280;66989;50.426;15.352;2023-08-08T12:39:59;97902.34;;;23.67;40.39
77799;BME280;66989;50.426;15.352;2023-08-08T12:42:24;97906.84;;;23.99;39.58
77799;BME280;66989;50.426;15.352;2023-08-08T12:44:50;97898.97;;;24.04;39.67
77799;BME280;66989;50.426;15.352;2023-08-08T12:47:19;97903.94;;;23.94;40.43
77799;BME280;66989;50.426;15.352;2023-08-08T12:49:46;97890.22;;;24.22;39.81